sensor_id;sensor_type;location;lat;lon;timestamp;temperature;humidity
13049;DHT22;6591;51.446;5.404;2023-09-07T00:04:08;19.90;99.10
13049;DHT22;6591;51.446;5.404;2023-09-07T00:06:35;19.80;98.80
13049;DHT22;6591;51.446;5.404;2023-09-07T00:09:03;20.40;97.90
13049;DHT22;6591;51.446;5.404;2023-09-07T00:11:33;19.70;98.40
13049;DHT22;6591;51.446;5.404;2023-09-07T00:14:00;19.70;98.40
13049;DHT22;6591;51.446;5.404;2023-09-07T00:16:27;19.60;98.70
13049;DHT22;6591;51.446;5.404;2023-09-07T00:18:55;19.50;98.90
13049;DHT22;6591;51.446;5.404;2023-09-07T00:21:22;19.50;99.10
13049;DHT22;6591;51.446;5.404;2023-09-07T00:23:49;19.50;99.30
13049;DHT22;6591;51.446;5.404;2023-09-07T00:26:18;19.40;99.30
13049;DHT22;6591;51.446;5.404;2023-09-07T00:28:45;19.40;99.50
13049;DHT22;6591;51.446;5.404;2023-09-07T00:31:13;19.40;99.80
13049;DHT22;6591;51.446;5.404;2023-09-07T00:33:40;19.60;99.90
13049;DHT22;6591;51.446;5.404;2023-09-07T00:36:07;19.30;99.90
13049;DHT22;6591;51.446;5.404;2023-09-07T00:38:35;19.20;99.90
13049;DHT22;6591;51.446;5.404;2023-09-07T00:41:02;21.10;99.90
13049;DHT22;6591;51.446;5.404;2023-09-07T00:43:29;19.20;99.90
13049;DHT22;6591;51.446;5.404;2023-09-07T00:45:57;19.20;99.90
13049;DHT22;6591;51.446;5.404;2023-09-07T00:48:25;19.20;99.90
13049;DHT22;6591;51.446;5.404;2023-09-07T00:50:53;19.20;99.90
13049;DHT22;6591;51.446;5.404;2023-09-07T00:53:21;19.10;99.90
13049;DHT22;6591;51.446;5.404;2023-09-07T00:55:49;19.10;99.90
13049;DHT22;6591;51.446;5.404;2023-09-07T00:58:16;19.10;99.90
13049;DHT22;6591;51.446;5.404;2023-09-07T01:00:44;19.10;99.90
13049;DHT22;6591;51.446;5.404;2023-09-07T01:03:13;19.10;99.90
13049;DHT22;6591;51.446;5.404;2023-09-07T01:05:51;19.20;99.90
13049;DHT22;6591;51.446;5.404;2023-09-07T01:08:35;19.10;99.90
13049;DHT22;6591;51.446;5.404;2023-09-07T01:11:19;19.10;99.90
13049;DHT22;6591;51.446;5.404;2023-09-07T01:13:49;19.10;99.90
13049;DHT22;6591;51.446;5.404;2023-09-07T01:16:17;19.00;99.90
13049;DHT22;6591;51.446;5.404;2023-09-07T01:18:48;19.00;99.90
13049;DHT22;6591;51.446;5.404;2023-09-07T01:21:16;19.00;99.90
13049;DHT22;6591;51.446;5.404;2023-09-07T01:23:46;19.00;99.90
13049;DHT22;6591;51.446;5.404;2023-09-07T01:26:15;19.80;99.90
13049;DHT22;6591;51.446;5.404;2023-09-07T01:28:42;18.90;99.90
13049;DHT22;6591;51.446;5.404;2023-09-07T01:31:10;18.80;99.90
13049;DHT22;6591;51.446;5.404;2023-09-07T01:33:37;18.80;99.90
13049;DHT22;6591;51.446;5.404;2023-09-07T01:36:05;18.80;99.90
13049;DHT22;6591;51.446;5.404;2023-09-07T01:38:32;18.80;99.90
13049;DHT22;6591;51.446;5.404;2023-09-07T01:41:00;18.90;99.90
13049;DHT22;6591;51.446;5.404;2023-09-07T01:43:27;18.70;99.90
13049;DHT22;6591;51.446;5.404;2023-09-07T01:45:54;19.90;99.90
13049;DHT22;6591;51.446;5.404;2023-09-07T01:48:23;19.80;99.90
13049;DHT22;6591;51.446;5.404;2023-09-07T01:50:54;18.70;99.90
13049;DHT22;6591;51.446;5.404;2023-09-07T01:53:21;18.70;99.90
13049;DHT22;6591;51.446;5.404;2023-09-07T01:55:50;18.70;99.90
13049;DHT22;6591;51.446;5.404;2023-09-07T01:58:20;18.70;99.90
13049;DHT22;6591;51.446;5.404;2023-09-07T02:00:47;18.70;99.90
13049;DHT22;6591;51.446;5.404;2023-09-07T02:03:15;18.70;99.90
13049;DHT22;6591;51.446;5.404;2023-09-07T02:05:46;18.70;99.90
13049;DHT22;6591;51.446;5.404;2023-09-07T02:08:13;18.70;99.90
13049;DHT22;6591;51.446;5.404;2023-09-07T02:10:40;18.70;99.90
13049;DHT22;6591;51.446;5.404;2023-09-07T02:13:07;18.70;99.90
13049;DHT22;6591;51.446;5.404;2023-09-07T02:15:40;18.70;99.90
13049;DHT22;6591;51.446;5.404;2023-09-07T02:18:07;18.70;99.90
13049;DHT22;6591;51.446;5.404;2023-09-07T02:20:34;18.70;99.90
13049;DHT22;6591;51.446;5.404;2023-09-07T02:23:01;18.80;99.90
13049;DHT22;6591;51.446;5.404;2023-09-07T02:25:29;18.70;99.90
13049;DHT22;6591;51.446;5.404;2023-09-07T02:27:57;19.20;99.90
13049;DHT22;6591;51.446;5.404;2023-09-07T02:30:24;18.80;99.90
13049;DHT22;6591;51.446;5.404;2023-09-07T02:32:52;18.80;99.90
13049;DHT22;6591;51.446;5.404;2023-09-07T02:35:21;18.80;99.90
13049;DHT22;6591;51.446;5.404;2023-09-07T02:37:48;19.90;99.90
13049;DHT22;6591;51.446;5.404;2023-09-07T02:40:15;18.70;99.90
13049;DHT22;6591;51.446;5.404;2023-09-07T02:42:45;18.70;99.90
13049;DHT22;6591;51.446;5.404;2023-09-07T02:45:14;18.70;99.90
13049;DHT22;6591;51.446;5.404;2023-09-07T02:47:41;18.70;99.90
13049;DHT22;6591;51.446;5.404;2023-09-07T02:50:09;18.70;99.90
13049;DHT22;6591;51.446;5.404;2023-09-07T02:52:36;18.70;99.90
13049;DHT22;6591;51.446;5.404;2023-09-07T02:55:04;18.70;99.90
13049;DHT22;6591;51.446;5.404;2023-09-07T02:57:32;18.70;99.90
13049;DHT22;6591;51.446;5.404;2023-09-07T02:59:59;18.70;99.90
13049;DHT22;6591;51.446;5.404;2023-09-07T03:02:27;18.80;99.90
13049;DHT22;6591;51.446;5.404;2023-09-07T03:04:55;19.20;99.90
13049;DHT22;6591;51.446;5.404;2023-09-07T03:07:25;19.30;99.90
13049;DHT22;6591;51.446;5.404;2023-09-07T03:09:52;18.80;99.90
13049;DHT22;6591;51.446;5.404;2023-09-07T03:12:20;18.80;99.90
13049;DHT22;6591;51.446;5.404;2023-09-07T03:14:48;18.90;99.90
13049;DHT22;6591;51.446;5.404;2023-09-07T03:17:18;18.90;99.90
13049;DHT22;6591;51.446;5.404;2023-09-07T03:19:48;19.60;99.90
13049;DHT22;6591;51.446;5.404;2023-09-07T03:22:17;18.90;99.90
13049;DHT22;6591;51.446;5.404;2023-09-07T03:24:44;18.90;99.90
13049;DHT22;6591;51.446;5.404;2023-09-07T03:27:11;18.80;99.90
13049;DHT22;6591;51.446;5.404;2023-09-07T03:29:38;19.50;99.90
13049;DHT22;6591;51.446;5.404;2023-09-07T03:32:06;19.90;99.90
13049;DHT22;6591;51.446;5.404;2023-09-07T03:34:33;18.90;99.90
13049;DHT22;6591;51.446;5.404;2023-09-07T03:37:00;18.80;99.90
13049;DHT22;6591;51.446;5.404;2023-09-07T03:39:27;18.80;99.90
13049;DHT22;6591;51.446;5.404;2023-09-07T03:41:55;18.70;99.90
13049;DHT22;6591;51.446;5.404;2023-09-07T03:44:25;18.80;99.90
13049;DHT22;6591;51.446;5.404;2023-09-07T03:46:52;18.80;99.90
13049;DHT22;6591;51.446;5.404;2023-09-07T03:49:19;18.70;99.90
13049;DHT22;6591;51.446;5.404;2023-09-07T03:51:47;18.80;99.90
13049;DHT22;6591;51.446;5.404;2023-09-07T03:54:14;19.20;99.90
13049;DHT22;6591;51.446;5.404;2023-09-07T03:56:41;20.10;99.90
13049;DHT22;6591;51.446;5.404;2023-09-07T03:59:08;18.60;99.90
13049;DHT22;6591;51.446;5.404;2023-09-07T04:01:37;18.60;99.90
13049;DHT22;6591;51.446;5.404;2023-09-07T04:04:05;18.50;99.90
13049;DHT22;6591;51.446;5.404;2023-09-07T04:06:32;18.50;99.90
13049;DHT22;6591;51.446;5.404;2023-09-07T04:08:59;18.60;99.90
13049;DHT22;6591;51.446;5.404;2023-09-07T04:11:26;19.30;99.90
13049;DHT22;6591;51.446;5.404;2023-09-07T04:13:53;18.50;99.90
13049;DHT22;6591;51.446;5.404;2023-09-07T04:16:20;18.50;99.90
13049;DHT22;6591;51.446;5.404;2023-09-07T04:18:48;16.70;99.90
13049;DHT22;6591;51.446;5.404;2023-09-07T04:21:15;18.60;99.90
13049;DHT22;6591;51.446;5.404;2023-09-07T04:23:42;19.50;99.90
13049;DHT22;6591;51.446;5.404;2023-09-07T04:26:11;18.50;99.90
13049;DHT22;6591;51.446;5.404;2023-09-07T04:28:38;19.10;99.90
13049;DHT22;6591;51.446;5.404;2023-09-07T04:31:06;19.10;99.90
13049;DHT22;6591;51.446;5.404;2023-09-07T04:33:34;18.40;99.90
13049;DHT22;6591;51.446;5.404;2023-09-07T04:36:15;18.20;99.90
13049;DHT22;6591;51.446;5.404;2023-09-07T04:38:45;18.30;99.90
13049;DHT22;6591;51.446;5.404;2023-09-07T04:41:13;18.40;99.90
13049;DHT22;6591;51.446;5.404;2023-09-07T04:43:42;18.30;99.90
13049;DHT22;6591;51.446;5.404;2023-09-07T04:46:11;18.30;99.90
13049;DHT22;6591;51.446;5.404;2023-09-07T04:48:40;18.50;99.90
13049;DHT22;6591;51.446;5.404;2023-09-07T04:51:08;18.30;99.90
13049;DHT22;6591;51.446;5.404;2023-09-07T04:53:39;18.30;99.90
13049;DHT22;6591;51.446;5.404;2023-09-07T04:56:08;18.50;99.90
13049;DHT22;6591;51.446;5.404;2023-09-07T04:58:36;18.30;99.90
13049;DHT22;6591;51.446;5.404;2023-09-07T05:01:05;18.20;99.90
13049;DHT22;6591;51.446;5.404;2023-09-07T05:03:37;18.20;99.90
13049;DHT22;6591;51.446;5.404;2023-09-07T05:06:08;18.20;99.90
13049;DHT22;6591;51.446;5.404;2023-09-07T05:08:35;18.20;99.90
13049;DHT22;6591;51.446;5.404;2023-09-07T05:11:04;18.20;99.90
13049;DHT22;6591;51.446;5.404;2023-09-07T05:13:32;18.20;99.90
13049;DHT22;6591;51.446;5.404;2023-09-07T05:16:01;18.20;99.90
13049;DHT22;6591;51.446;5.404;2023-09-07T05:18:28;18.80;99.90
13049;DHT22;6591;51.446;5.404;2023-09-07T05:20:57;18.40;99.90
13049;DHT22;6591;51.446;5.404;2023-09-07T05:23:26;18.80;99.90
13049;DHT22;6591;51.446;5.404;2023-09-07T05:25:54;18.20;99.90
13049;DHT22;6591;51.446;5.404;2023-09-07T05:28:25;18.20;99.90
13049;DHT22;6591;51.446;5.404;2023-09-07T05:30:54;18.20;99.90
13049;DHT22;6591;51.446;5.404;2023-09-07T05:33:23;19.40;99.90
13049;DHT22;6591;51.446;5.404;2023-09-07T05:35:50;18.20;99.90
13049;DHT22;6591;51.446;5.404;2023-09-07T05:38:17;20.20;99.90
13049;DHT22;6591;51.446;5.404;2023-09-07T05:40:45;18.20;99.90
13049;DHT22;6591;51.446;5.404;2023-09-07T05:43:12;18.20;99.90
13049;DHT22;6591;51.446;5.404;2023-09-07T05:45:41;18.20;99.90
13049;DHT22;6591;51.446;5.404;2023-09-07T05:48:10;18.70;99.90
13049;DHT22;6591;51.446;5.404;2023-09-07T05:50:40;18.70;99.90
13049;DHT22;6591;51.446;5.404;2023-09-07T05:53:08;18.50;99.90
13049;DHT22;6591;51.446;5.404;2023-09-07T05:55:35;18.30;99.90
13049;DHT22;6591;51.446;5.404;2023-09-07T05:58:08;18.30;99.90
13049;DHT22;6591;51.446;5.404;2023-09-07T06:00:39;18.70;99.90
13049;DHT22;6591;51.446;5.404;2023-09-07T06:03:08;18.40;99.90
13049;DHT22;6591;51.446;5.404;2023-09-07T06:05:38;20.20;99.90
13049;DHT22;6591;51.446;5.404;2023-09-07T06:08:08;19.10;99.90
13049;DHT22;6591;51.446;5.404;2023-09-07T06:10:36;18.60;99.90
13049;DHT22;6591;51.446;5.404;2023-09-07T06:13:05;18.70;99.90
13049;DHT22;6591;51.446;5.404;2023-09-07T06:15:32;18.70;99.90
13049;DHT22;6591;51.446;5.404;2023-09-07T06:18:00;19.10;99.90
13049;DHT22;6591;51.446;5.404;2023-09-07T06:20:28;19.00;99.90
13049;DHT22;6591;51.446;5.404;2023-09-07T06:22:57;19.10;99.90
13049;DHT22;6591;51.446;5.404;2023-09-07T06:25:25;19.20;99.90
13049;DHT22;6591;51.446;5.404;2023-09-07T06:27:54;20.40;99.90
13049;DHT22;6591;51.446;5.404;2023-09-07T06:30:23;19.50;99.90
13049;DHT22;6591;51.446;5.404;2023-09-07T06:32:50;19.60;99.90
13049;DHT22;6591;51.446;5.404;2023-09-07T06:35:19;19.80;99.90
13049;DHT22;6591;51.446;5.404;2023-09-07T06:37:47;19.90;99.90
13049;DHT22;6591;51.446;5.404;2023-09-07T06:40:17;20.10;99.90
13049;DHT22;6591;51.446;5.404;2023-09-07T06:42:48;20.20;99.90
13049;DHT22;6591;51.446;5.404;2023-09-07T06:45:19;20.40;99.90
13049;DHT22;6591;51.446;5.404;2023-09-07T06:47:49;20.60;99.90
13049;DHT22;6591;51.446;5.404;2023-09-07T06:50:20;20.70;99.90
13049;DHT22;6591;51.446;5.404;2023-09-07T06:52:48;20.90;99.90
13049;DHT22;6591;51.446;5.404;2023-09-07T06:55:15;21.40;99.90
13049;DHT22;6591;51.446;5.404;2023-09-07T06:57:44;21.30;99.90
13049;DHT22;6591;51.446;5.404;2023-09-07T07:00:12;21.50;99.90
13049;DHT22;6591;51.446;5.404;2023-09-07T07:02:40;21.70;99.90
13049;DHT22;6591;51.446;5.404;2023-09-07T07:05:08;22.70;99.90
13049;DHT22;6591;51.446;5.404;2023-09-07T07:07:36;22.80;99.90
13049;DHT22;6591;51.446;5.404;2023-09-07T07:10:04;22.30;99.90
13049;DHT22;6591;51.446;5.404;2023-09-07T07:12:32;22.40;99.90
13049;DHT22;6591;51.446;5.404;2023-09-07T07:15:03;22.70;99.90
13049;DHT22;6591;51.446;5.404;2023-09-07T07:17:31;22.80;99.90
13049;DHT22;6591;51.446;5.404;2023-09-07T07:19:58;23.10;99.90
13049;DHT22;6591;51.446;5.404;2023-09-07T07:22:25;23.30;99.90
13049;DHT22;6591;51.446;5.404;2023-09-07T07:24:54;23.50;99.90
13049;DHT22;6591;51.446;5.404;2023-09-07T07:27:21;23.70;99.70
13049;DHT22;6591;51.446;5.404;2023-09-07T07:29:50;23.90;99.50
13049;DHT22;6591;51.446;5.404;2023-09-07T07:32:18;24.10;99.20
13049;DHT22;6591;51.446;5.404;2023-09-07T07:34:47;24.30;98.80
13049;DHT22;6591;51.446;5.404;2023-09-07T07:37:15;24.50;98.40
13049;DHT22;6591;51.446;5.404;2023-09-07T07:39:42;24.70;98.00
13049;DHT22;6591;51.446;5.404;2023-09-07T07:42:11;24.80;97.80
13049;DHT22;6591;51.446;5.404;2023-09-07T07:44:41;25.00;97.50
13049;DHT22;6591;51.446;5.404;2023-09-07T07:47:08;25.20;97.30
13049;DHT22;6591;51.446;5.404;2023-09-07T07:49:36;25.40;97.00
13049;DHT22;6591;51.446;5.404;2023-09-07T07:52:04;25.50;96.80
13049;DHT22;6591;51.446;5.404;2023-09-07T07:54:33;25.70;96.90
13049;DHT22;6591;51.446;5.404;2023-09-07T07:57:02;25.90;96.30
13049;DHT22;6591;51.446;5.404;2023-09-07T07:59:30;26.10;96.10
13049;DHT22;6591;51.446;5.404;2023-09-07T08:01:57;26.30;95.80
13049;DHT22;6591;51.446;5.404;2023-09-07T08:04:25;26.40;95.50
13049;DHT22;6591;51.446;5.404;2023-09-07T08:06:52;26.60;95.40
13049;DHT22;6591;51.446;5.404;2023-09-07T08:09:24;26.80;95.30
13049;DHT22;6591;51.446;5.404;2023-09-07T08:11:52;27.00;94.80
13049;DHT22;6591;51.446;5.404;2023-09-07T08:14:19;27.20;94.60
13049;DHT22;6591;51.446;5.404;2023-09-07T08:16:46;27.40;94.30
13049;DHT22;6591;51.446;5.404;2023-09-07T08:19:13;27.50;94.00
13049;DHT22;6591;51.446;5.404;2023-09-07T08:21:41;27.70;93.90
13049;DHT22;6591;51.446;5.404;2023-09-07T08:24:09;27.90;93.50
13049;DHT22;6591;51.446;5.404;2023-09-07T08:26:36;28.00;93.00
13049;DHT22;6591;51.446;5.404;2023-09-07T08:29:07;28.10;92.80
13049;DHT22;6591;51.446;5.404;2023-09-07T08:31:35;28.30;92.50
13049;DHT22;6591;51.446;5.404;2023-09-07T08:34:06;28.50;92.30
13049;DHT22;6591;51.446;5.404;2023-09-07T08:36:36;28.60;91.90
13049;DHT22;6591;51.446;5.404;2023-09-07T08:39:04;28.70;91.50
13049;DHT22;6591;51.446;5.404;2023-09-07T08:41:41;28.80;91.20
13049;DHT22;6591;51.446;5.404;2023-09-07T08:44:26;29.00;91.10
13049;DHT22;6591;51.446;5.404;2023-09-07T08:46:55;29.20;90.80
13049;DHT22;6591;51.446;5.404;2023-09-07T08:49:23;29.40;90.60
13049;DHT22;6591;51.446;5.404;2023-09-07T08:51:51;29.60;90.50
13049;DHT22;6591;51.446;5.404;2023-09-07T08:54:20;29.80;90.30
13049;DHT22;6591;51.446;5.404;2023-09-07T08:56:49;30.00;90.00
13049;DHT22;6591;51.446;5.404;2023-09-07T08:59:17;30.20;89.70
13049;DHT22;6591;51.446;5.404;2023-09-07T09:01:45;30.40;89.20
13049;DHT22;6591;51.446;5.404;2023-09-07T09:04:12;30.50;88.10
13049;DHT22;6591;51.446;5.404;2023-09-07T09:06:40;30.70;86.50
13049;DHT22;6591;51.446;5.404;2023-09-07T09:09:07;30.80;85.60
13049;DHT22;6591;51.446;5.404;2023-09-07T09:11:34;30.90;85.00
13049;DHT22;6591;51.446;5.404;2023-09-07T09:14:05;30.40;84.20
13049;DHT22;6591;51.446;5.404;2023-09-07T09:16:32;31.10;83.30
13049;DHT22;6591;51.446;5.404;2023-09-07T09:18:59;31.20;83.60
13049;DHT22;6591;51.446;5.404;2023-09-07T09:21:27;31.30;82.90
13049;DHT22;6591;51.446;5.404;2023-09-07T09:23:56;31.40;82.60
13049;DHT22;6591;51.446;5.404;2023-09-07T09:26:24;31.50;81.40
13049;DHT22;6591;51.446;5.404;2023-09-07T09:28:56;31.60;81.10
13049;DHT22;6591;51.446;5.404;2023-09-07T09:31:24;31.80;81.10
13049;DHT22;6591;51.446;5.404;2023-09-07T09:33:52;31.90;80.30
13049;DHT22;6591;51.446;5.404;2023-09-07T09:36:20;32.10;80.00
13049;DHT22;6591;51.446;5.404;2023-09-07T09:38:52;32.30;80.00
13049;DHT22;6591;51.446;5.404;2023-09-07T09:41:23;32.50;78.80
13049;DHT22;6591;51.446;5.404;2023-09-07T09:43:52;32.70;78.80
13049;DHT22;6591;51.446;5.404;2023-09-07T09:46:21;32.90;78.00
13049;DHT22;6591;51.446;5.404;2023-09-07T09:48:49;33.10;77.50
13049;DHT22;6591;51.446;5.404;2023-09-07T09:51:18;33.30;76.80
13049;DHT22;6591;51.446;5.404;2023-09-07T09:53:45;33.60;75.80
13049;DHT22;6591;51.446;5.404;2023-09-07T09:56:13;33.60;74.40
13049;DHT22;6591;51.446;5.404;2023-09-07T09:58:41;33.90;73.70
13049;DHT22;6591;51.446;5.404;2023-09-07T10:01:10;34.00;72.70
13049;DHT22;6591;51.446;5.404;2023-09-07T10:03:46;34.00;72.10
13049;DHT22;6591;51.446;5.404;2023-09-07T10:06:20;34.10;71.60
13049;DHT22;6591;51.446;5.404;2023-09-07T10:09:04;34.20;70.90
13049;DHT22;6591;51.446;5.404;2023-09-07T10:11:38;34.30;69.40
13049;DHT22;6591;51.446;5.404;2023-09-07T10:14:07;34.40;69.10
13049;DHT22;6591;51.446;5.404;2023-09-07T10:16:48;34.50;68.90
13049;DHT22;6591;51.446;5.404;2023-09-07T10:19:23;34.50;67.40
13049;DHT22;6591;51.446;5.404;2023-09-07T10:21:53;34.60;66.80
13049;DHT22;6591;51.446;5.404;2023-09-07T10:24:32;34.70;66.70
13049;DHT22;6591;51.446;5.404;2023-09-07T10:27:07;34.70;65.70
13049;DHT22;6591;51.446;5.404;2023-09-07T10:29:50;34.90;66.70
13049;DHT22;6591;51.446;5.404;2023-09-07T10:32:22;35.10;64.70
13049;DHT22;6591;51.446;5.404;2023-09-07T10:34:50;35.30;66.50
13049;DHT22;6591;51.446;5.404;2023-09-07T10:37:17;35.50;65.60
13049;DHT22;6591;51.446;5.404;2023-09-07T10:39:45;35.70;65.50
13049;DHT22;6591;51.446;5.404;2023-09-07T10:42:25;35.90;64.50
13049;DHT22;6591;51.446;5.404;2023-09-07T10:44:54;36.10;62.20
13049;DHT22;6591;51.446;5.404;2023-09-07T10:47:21;36.20;63.10
13049;DHT22;6591;51.446;5.404;2023-09-07T10:49:49;36.30;62.20
13049;DHT22;6591;51.446;5.404;2023-09-07T10:52:17;36.40;61.80
13049;DHT22;6591;51.446;5.404;2023-09-07T10:54:44;36.50;61.50
13049;DHT22;6591;51.446;5.404;2023-09-07T10:57:12;36.70;61.30
13049;DHT22;6591;51.446;5.404;2023-09-07T10:59:45;36.80;60.60
13049;DHT22;6591;51.446;5.404;2023-09-07T11:02:13;36.90;60.20
13049;DHT22;6591;51.446;5.404;2023-09-07T11:04:43;37.10;59.80
13049;DHT22;6591;51.446;5.404;2023-09-07T11:07:11;37.40;59.40
13049;DHT22;6591;51.446;5.404;2023-09-07T11:09:43;37.50;59.00
13049;DHT22;6591;51.446;5.404;2023-09-07T11:12:14;37.70;58.60
13049;DHT22;6591;51.446;5.404;2023-09-07T11:14:43;37.80;57.60
13049;DHT22;6591;51.446;5.404;2023-09-07T11:17:10;37.90;58.30
13049;DHT22;6591;51.446;5.404;2023-09-07T11:19:37;38.00;57.00
13049;DHT22;6591;51.446;5.404;2023-09-07T11:22:04;38.10;56.90
13049;DHT22;6591;51.446;5.404;2023-09-07T11:24:35;38.20;56.50
13049;DHT22;6591;51.446;5.404;2023-09-07T11:27:02;38.30;55.80
13049;DHT22;6591;51.446;5.404;2023-09-07T11:29:32;38.40;56.30
13049;DHT22;6591;51.446;5.404;2023-09-07T11:32:09;38.50;55.60
13049;DHT22;6591;51.446;5.404;2023-09-07T11:34:48;38.70;54.90
13049;DHT22;6591;51.446;5.404;2023-09-07T11:37:18;38.80;54.50
13049;DHT22;6591;51.446;5.404;2023-09-07T11:39:50;38.70;54.70
13049;DHT22;6591;51.446;5.404;2023-09-07T11:42:17;38.90;54.00
13049;DHT22;6591;51.446;5.404;2023-09-07T11:44:44;39.00;54.00
13049;DHT22;6591;51.446;5.404;2023-09-07T11:47:11;39.00;53.80
13049;DHT22;6591;51.446;5.404;2023-09-07T11:49:38;39.10;53.40
13049;DHT22;6591;51.446;5.404;2023-09-07T11:52:05;39.30;53.40
13049;DHT22;6591;51.446;5.404;2023-09-07T11:54:32;39.40;53.40
13049;DHT22;6591;51.446;5.404;2023-09-07T11:56:59;39.60;53.40
13049;DHT22;6591;51.446;5.404;2023-09-07T11:59:26;39.80;52.70
13049;DHT22;6591;51.446;5.404;2023-09-07T12:02:10;40.00;52.40
13049;DHT22;6591;51.446;5.404;2023-09-07T12:04:41;40.10;52.10
13049;DHT22;6591;51.446;5.404;2023-09-07T12:07:08;40.20;51.30
13049;DHT22;6591;51.446;5.404;2023-09-07T12:09:36;40.30;50.80
13049;DHT22;6591;51.446;5.404;2023-09-07T12:12:03;40.20;50.40
13049;DHT22;6591;51.446;5.404;2023-09-07T12:14:31;40.20;50.60
13049;DHT22;6591;51.446;5.404;2023-09-07T12:16:58;40.20;50.30
13049;DHT22;6591;51.446;5.404;2023-09-07T12:19:27;40.30;49.90
13049;DHT22;6591;51.446;5.404;2023-09-07T12:21:55;40.40;49.60
13049;DHT22;6591;51.446;5.404;2023-09-07T12:24:22;40.40;49.60
13049;DHT22;6591;51.446;5.404;2023-09-07T12:26:50;40.50;49.70
13049;DHT22;6591;51.446;5.404;2023-09-07T12:29:17;40.50;49.60
13049;DHT22;6591;51.446;5.404;2023-09-07T12:31:44;40.60;49.40
13049;DHT22;6591;51.446;5.404;2023-09-07T12:34:12;40.80;48.70
13049;DHT22;6591;51.446;5.404;2023-09-07T12:36:39;40.80;48.50
13049;DHT22;6591;51.446;5.404;2023-09-07T12:39:06;40.80;48.30
13049;DHT22;6591;51.446;5.404;2023-09-07T12:41:33;40.80;48.50
13049;DHT22;6591;51.446;5.404;2023-09-07T12:44:00;40.70;48.30
13049;DHT22;6591;51.446;5.404;2023-09-07T12:46:28;40.60;48.30
13049;DHT22;6591;51.446;5.404;2023-09-07T12:48:55;40.60;48.40
13049;DHT22;6591;51.446;5.404;2023-09-07T12:51:22;40.60;48.10
13049;DHT22;6591;51.446;5.404;2023-09-07T12:53:49;40.50;48.10
13049;DHT22;6591;51.446;5.404;2023-09-07T12:56:16;40.50;47.50
13049;DHT22;6591;51.446;5.404;2023-09-07T12:58:45;40.40;47.70
13049;DHT22;6591;51.446;5.404;2023-09-07T13:01:12;40.30;47.60
13049;DHT22;6591;51.446;5.404;2023-09-07T13:03:42;40.20;47.50
13049;DHT22;6591;51.446;5.404;2023-09-07T13:06:09;40.10;48.00
13049;DHT22;6591;51.446;5.404;2023-09-07T13:08:37;40.20;47.70
13049;DHT22;6591;51.446;5.404;2023-09-07T13:11:04;40.20;47.80
13049;DHT22;6591;51.446;5.404;2023-09-07T13:13:31;40.30;47.90
13049;DHT22;6591;51.446;5.404;2023-09-07T13:15:58;40.40;48.00
13049;DHT22;6591;51.446;5.404;2023-09-07T13:18:26;40.50;48.20
13049;DHT22;6591;51.446;5.404;2023-09-07T13:20:53;40.60;47.90
13049;DHT22;6591;51.446;5.404;2023-09-07T13:23:26;40.70;47.90
13049;DHT22;6591;51.446;5.404;2023-09-07T13:25:55;40.80;47.80
13049;DHT22;6591;51.446;5.404;2023-09-07T13:28:23;40.90;47.80
13049;DHT22;6591;51.446;5.404;2023-09-07T13:30:50;40.90;47.50
13049;DHT22;6591;51.446;5.404;2023-09-07T13:33:18;40.90;47.50
13049;DHT22;6591;51.446;5.404;2023-09-07T13:35:45;41.00;47.90
13049;DHT22;6591;51.446;5.404;2023-09-07T13:38:12;41.10;47.20
13049;DHT22;6591;51.446;5.404;2023-09-07T13:40:39;41.10;47.20
13049;DHT22;6591;51.446;5.404;2023-09-07T13:43:06;41.20;47.10
13049;DHT22;6591;51.446;5.404;2023-09-07T13:45:34;41.20;47.00
13049;DHT22;6591;51.446;5.404;2023-09-07T13:48:01;41.30;47.00
13049;DHT22;6591;51.446;5.404;2023-09-07T13:50:29;41.40;46.80
13049;DHT22;6591;51.446;5.404;2023-09-07T13:52:56;41.40;46.60
13049;DHT22;6591;51.446;5.404;2023-09-07T13:55:23;41.40;46.50
13049;DHT22;6591;51.446;5.404;2023-09-07T13:57:52;41.40;46.90
13049;DHT22;6591;51.446;5.404;2023-09-07T14:00:19;41.40;46.60
13049;DHT22;6591;51.446;5.404;2023-09-07T14:02:46;41.40;46.50
13049;DHT22;6591;51.446;5.404;2023-09-07T14:05:13;41.40;46.70
13049;DHT22;6591;51.446;5.404;2023-09-07T14:07:40;41.30;46.60
13049;DHT22;6591;51.446;5.404;2023-09-07T14:10:07;41.40;46.60
13049;DHT22;6591;51.446;5.404;2023-09-07T14:12:34;41.40;46.60
13049;DHT22;6591;51.446;5.404;2023-09-07T14:15:02;41.60;46.60
13049;DHT22;6591;51.446;5.404;2023-09-07T14:17:29;41.70;46.50
13049;DHT22;6591;51.446;5.404;2023-09-07T14:19:56;41.70;46.40
13049;DHT22;6591;51.446;5.404;2023-09-07T14:22:23;41.90;46.50
13049;DHT22;6591;51.446;5.404;2023-09-07T14:24:50;42.00;46.40
13049;DHT22;6591;51.446;5.404;2023-09-07T14:27:17;42.10;46.00
13049;DHT22;6591;51.446;5.404;2023-09-07T14:29:44;42.20;46.00
13049;DHT22;6591;51.446;5.404;2023-09-07T14:32:11;42.30;46.10
13049;DHT22;6591;51.446;5.404;2023-09-07T14:34:38;42.40;46.30
13049;DHT22;6591;51.446;5.404;2023-09-07T14:37:05;42.40;46.20
13049;DHT22;6591;51.446;5.404;2023-09-07T14:39:32;42.60;45.60
13049;DHT22;6591;51.446;5.404;2023-09-07T14:42:00;42.60;45.30
13049;DHT22;6591;51.446;5.404;2023-09-07T14:44:27;42.60;45.00
13049;DHT22;6591;51.446;5.404;2023-09-07T14:46:55;42.60;45.10
13049;DHT22;6591;51.446;5.404;2023-09-07T14:49:22;42.60;44.80
13049;DHT22;6591;51.446;5.404;2023-09-07T14:51:49;42.50;44.80
13049;DHT22;6591;51.446;5.404;2023-09-07T14:54:16;42.50;44.90
13049;DHT22;6591;51.446;5.404;2023-09-07T14:56:44;42.50;45.00
13049;DHT22;6591;51.446;5.404;2023-09-07T14:59:11;42.40;44.70
13049;DHT22;6591;51.446;5.404;2023-09-07T15:01:38;42.40;44.90
13049;DHT22;6591;51.446;5.404;2023-09-07T15:04:06;42.40;44.70
13049;DHT22;6591;51.446;5.404;2023-09-07T15:06:33;42.30;45.30
13049;DHT22;6591;51.446;5.404;2023-09-07T15:09:00;42.30;45.00
13049;DHT22;6591;51.446;5.404;2023-09-07T15:11:27;42.30;45.00
13049;DHT22;6591;51.446;5.404;2023-09-07T15:13:54;42.20;44.50
13049;DHT22;6591;51.446;5.404;2023-09-07T15:16:22;42.20;44.50
13049;DHT22;6591;51.446;5.404;2023-09-07T15:18:52;42.10;44.60
13049;DHT22;6591;51.446;5.404;2023-09-07T15:21:20;41.90;44.80
13049;DHT22;6591;51.446;5.404;2023-09-07T15:23:48;41.70;45.10
13049;DHT22;6591;51.446;5.404;2023-09-07T15:26:15;41.70;45.00
13049;DHT22;6591;51.446;5.404;2023-09-07T15:28:42;41.60;45.00
13049;DHT22;6591;51.446;5.404;2023-09-07T15:31:10;41.60;45.00
13049;DHT22;6591;51.446;5.404;2023-09-07T15:33:37;41.50;44.60
13049;DHT22;6591;51.446;5.404;2023-09-07T15:36:04;41.40;44.40
13049;DHT22;6591;51.446;5.404;2023-09-07T15:38:31;41.40;44.60
13049;DHT22;6591;51.446;5.404;2023-09-07T15:40:59;41.40;44.50
13049;DHT22;6591;51.446;5.404;2023-09-07T15:43:32;41.40;44.60
13049;DHT22;6591;51.446;5.404;2023-09-07T15:45:59;41.30;44.30
13049;DHT22;6591;51.446;5.404;2023-09-07T15:48:26;41.30;44.60
13049;DHT22;6591;51.446;5.404;2023-09-07T15:50:54;41.30;44.50
13049;DHT22;6591;51.446;5.404;2023-09-07T15:53:21;41.30;44.40
13049;DHT22;6591;51.446;5.404;2023-09-07T15:55:48;41.30;44.40